Time;durP1;ratioP1;P1;durP2;ratioP2;P2;SDS_P1;SDS_P2;PMS_P1;PMS_P2;Temp;Humidity;BMP_temperature;BMP_pressure;BME280_temperature;BME280_humidity;BME280_pressure;Samples;Min_cycle;Max_cycle;Signal;HPM_P1;HPM_P2
2022/09/28 11:43:48;;;;;;;;;;;;;;;;;;;;;
2022/09/28 11:47:51;;;;;;;;;;;;;;;;;;;;;
2022/09/28 11:51:21;;;;;;;6.40;2.80;;;;;;;15.41;47.34;98607.14;108908;1270;23105;-80
2022/09/28 11:55:02;;;;;;;4.70;2.70;;;;;;;15.29;48.05;98602.58;108445;1275;22016;-77
2022/09/28 11:57:46;;;;;;;4.20;2.90;;;;;;;15.13;48.21;98601.79;108557;1273;24339;-79
2022/09/28 12:01:02;;;;;;;;;;;;;;;;;;;;;
2022/09/28 12:05:23;;;;;;;4.00;3.40;;;;;;;15.05;49.83;98587.98;108474;1276;22006;-79
2022/09/28 12:12:32;;;;;;;4.80;2.70;;;;;;;15.04;49.53;98580.17;107299;1283;24046;-78
2022/09/28 12:20:13;;;;;;;2.90;2.60;;;;;;;14.92;49.40;98572.88;106632;1297;22068;-78
2022/09/28 12:23:15;;;;;;;3.30;2.50;;;;;;;14.84;49.21;98570.42;106241;1297;23732;-77
2022/09/28 12:26:05;;;;;;;4.90;2.50;;;;;;;14.76;49.00;98572.45;106685;1291;23749;-78
2022/09/28 12:29:08;;;;;;;5.20;3.20;;;;;;;14.67;48.95;98578.30;107171;1291;23110;-80
2022/09/28 12:32:45;;;;;;;3.00;1.90;;;;;;;14.59;49.13;98571.27;107615;1291;23110;-77
2022/09/28 12:36:08;;;;;;;5.40;2.10;;;;;;;14.50;49.34;98571.60;107118;1292;23766;-78
2022/09/28 12:39:45;;;;;;;20.00;3.00;;;;;;;14.43;49.39;98572.88;106477;1299;23088;-78
2022/09/28 12:53:46;;;;;;;4.40;2.20;;;;;;;15.78;45.70;98573.86;107984;1282;557856;-80
2022/09/28 12:56:36;;;;;;;;;;;;;;;;;;;;;
2022/09/28 12:59:16;;;;;;;3.70;2.70;;;;;;;14.93;47.28;98572.49;108947;1270;22212;-80
2022/09/28 13:02:19;;;;;;;5.40;3.20;;;;;;;14.81;48.05;98570.15;108898;1270;23708;-78
2022/09/28 13:05:06;;;;;;;6.40;3.20;;;;;;;14.69;48.32;98569.72;109017;1268;22225;-78
2022/09/28 13:08:12;;;;;;;5.20;3.00;;;;;;;14.55;48.50;98568.63;108906;1268;23594;-82
2022/09/28 13:11:15;;;;;;;4.80;2.20;;;;;;;14.45;48.92;98570.77;109218;1268;22023;-79
2022/09/28 13:14:21;;;;;;;3.60;2.90;;;;;;;14.38;49.25;98567.71;109218;1265;22535;-78
2022/09/28 13:17:45;;;;;;;5.10;3.90;;;;;;;14.32;49.45;98570.78;109669;1259;21967;-79
2022/09/28 13:20:49;;;;;;;4.30;3.10;;;;;;;14.22;49.71;98569.35;110699;1254;22504;-79
2022/09/28 13:23:35;;;;;;;5.60;3.60;;;;;;;14.10;49.90;98564.70;110555;1254;23053;-78
2022/09/28 13:26:22;;;;;;;6.90;4.70;;;;;;;13.98;50.32;98563.54;110443;1254;21983;-79
2022/09/28 13:29:05;;;;;;;11.50;6.60;;;;;;;13.94;50.99;98565.82;110639;1254;21969;-80
2022/09/28 13:31:57;;;;;;;12.60;8.80;;;;;;;13.92;51.78;98571.93;110166;1254;22177;-79
2022/09/28 13:34:53;;;;;;;6.90;4.80;;;;;;;13.80;52.07;98580.08;110526;1254;21975;-81
2022/09/28 13:38:19;;;;;;;11.90;7.80;;;;;;;13.50;53.01;98592.86;110806;1254;22416;-79
2022/09/28 13:41:12;;;;;;;12.80;8.10;;;;;;;13.33;54.27;98599.96;111010;1254;21977;-80
2022/09/28 13:44:36;;;;;;;15.60;9.30;;;;;;;13.07;55.87;98606.08;111088;1254;21968;-80
2022/09/28 13:48:10;;;;;;;25.60;13.40;;;;;;;12.61;57.56;98606.20;110091;1259;21980;-80
2022/09/28 13:51:37;;;;;;;29.60;24.30;;;;;;;12.56;58.63;98606.41;109920;1262;22091;-80
2022/09/28 13:54:53;;;;;;;10.40;6.90;;;;;;;12.49;59.60;98609.00;110036;1260;21973;-82
2022/09/28 13:58:11;;;;;;;12.30;8.00;;;;;;;12.48;60.47;98604.89;109909;1259;23781;-81
2022/09/28 14:01:21;;;;;;;8.10;6.90;;;;;;;12.51;61.04;98601.23;110118;1259;22064;-80
2022/09/28 14:04:39;;;;;;;11.50;6.70;;;;;;;12.46;61.29;98601.69;110289;1259;23740;-80
2022/09/28 14:07:38;;;;;;;9.60;6.80;;;;;;;12.27;61.64;98592.82;110126;1261;21998;-80
2022/09/28 14:10:52;;;;;;;8.90;7.60;;;;;;;12.09;62.05;98585.39;110403;1259;22033;-80
2022/09/28 14:13:40;;;;;;;9.20;8.10;;;;;;;12.03;62.66;98580.45;108980;1271;24304;-80
2022/09/28 14:16:26;;;;;;;12.80;7.90;;;;;;;11.98;62.92;98576.61;109099;1269;21981;-80
2022/09/28 14:19:31;;;;;;;10.20;8.90;;;;;;;11.87;63.12;98571.95;109273;1268;22102;-80
2022/09/28 14:22:38;;;;;;;;;;;;;;;;;;;;;
2022/09/28 14:25:30;;;;;;;9.80;8.80;;;;;;;11.81;64.24;98564.17;110606;1257;22720;-84
2022/09/28 14:28:25;;;;;;;;;;;;;;;11.86;64.62;98569.90;110330;1259;22425;-80
2022/09/28 14:31:05;;;;;;;10.50;7.10;;;;;;;11.81;65.01;98569.42;110185;1260;24459;-81
2022/09/28 14:33:55;;;;;;;12.90;7.10;;;;;;;11.84;65.09;98559.44;110607;1256;24165;-79
2022/09/28 14:42:25;;;;;;;6.10;4.70;;;;;;;11.84;65.44;98562.20;110654;1259;22044;-81
2022/09/28 14:45:03;;;;;;;10.30;5.70;;;;;;;11.82;65.42;98556.10;110332;1261;22051;-80
2022/09/28 14:48:02;;;;;;;7.90;6.70;;;;;;;11.79;65.54;98546.20;110480;1259;21966;-80
2022/09/28 14:50:40;;;;;;;8.20;6.00;;;;;;;11.74;65.97;98550.88;110491;1251;21958;-81
2022/09/28 14:53:39;;;;;;;12.80;8.80;;;;;;;11.74;66.22;98557.91;111207;1250;21989;-85
2022/09/28 14:57:03;;;;;;;10.60;6.90;;;;;;;11.72;66.25;98554.36;111321;1251;22328;-85
2022/09/28 14:59:58;;;;;;;9.80;6.80;;;;;;;11.65;66.30;98553.48;110694;1257;22412;-79
2022/09/28 15:03:04;;;;;;;12.70;8.00;;;;;;;11.59;66.55;98557.39;110321;1259;22464;-79
2022/09/28 15:05:56;;;;;;;9.50;6.80;;;;;;;11.59;66.71;98545.19;110395;1258;23023;-79
2022/09/28 15:09:35;;;;;;;9.70;8.40;;;;;;;11.52;66.93;98557.55;110477;1259;22064;-80
2022/09/28 15:12:32;;;;;;;15.90;13.50;;;;;;;11.54;67.22;98566.63;109978;1262;21980;-80
2022/09/28 15:15:53;;;;;;;14.90;11.70;;;;;;;11.59;67.35;98560.70;110150;1261;22052;-79
2022/09/28 15:19:05;;;;;;;13.90;11.50;;;;;;;11.64;67.67;98564.88;109251;1268;22393;-80
2022/09/28 15:21:49;;;;;;;15.10;11.70;;;;;;;11.68;67.63;98560.24;108987;1273;22006;-79
2022/09/28 15:24:39;;;;;;;12.50;10.10;;;;;;;11.73;67.90;98547.33;108860;1273;23734;-79
2022/09/28 15:27:20;;;;;;;14.10;10.10;;;;;;;11.73;67.67;98545.58;108849;1273;23085;-81
2022/09/28 15:29:59;;;;;;;12.10;10.30;;;;;;;11.70;67.64;98549.09;108813;1273;21997;-80
2022/09/28 15:32:45;;;;;;;12.40;11.10;;;;;;;11.75;67.85;98542.33;108831;1273;23150;-79
2022/09/28 15:35:25;;;;;;;12.60;9.50;;;;;;;11.76;67.82;98542.38;108574;1274;22000;-81
2022/09/28 15:38:16;;;;;;;13.90;10.40;;;;;;;11.76;67.89;98541.70;109367;1264;22005;-81
2022/09/28 15:41:09;;;;;;;;;;;;;;;;;;;;;
2022/09/28 15:44:14;;;;;;;15.80;13.30;;;;;;;11.81;67.88;98544.50;110011;1259;24285;-81
2022/09/28 15:47:32;;;;;;;14.40;12.60;;;;;;;11.78;67.95;98538.30;109664;1264;21981;-80
2022/09/28 15:50:10;;;;;;;14.40;11.70;;;;;;;11.79;68.02;98539.73;110778;1256;21941;-80
2022/09/28 15:53:24;;;;;;;13.90;12.00;;;;;;;11.79;67.94;98546.20;110653;1255;22613;-80
2022/09/28 15:56:13;;;;;;;14.10;12.30;;;;;;;11.79;68.07;98549.48;110531;1256;21977;-80
2022/09/28 15:59:17;;;;;;;12.50;11.10;;;;;;;11.84;68.08;98538.04;110578;1256;22967;-79
2022/09/28 16:02:19;;;;;;;15.70;14.20;;;;;;;11.87;68.12;98534.34;110423;1256;21961;-80
2022/09/28 16:05:24;;;;;;;9.80;8.80;;;;;;;11.87;67.94;98527.88;110021;1256;23069;-80
2022/09/28 16:08:41;;;;;;;11.30;10.10;;;;;;;11.81;67.68;98523.77;110679;1256;23817;-79
2022/09/28 16:11:30;;;;;;;13.80;9.90;;;;;;;11.84;67.85;98520.26;110695;1255;21971;-81
2022/09/28 16:14:24;;;;;;;13.60;12.30;;;;;;;11.85;67.53;98523.28;110666;1256;22735;-80
2022/09/28 16:17:02;;;;;;;16.40;14.70;;;;;;;11.81;67.30;98532.27;110857;1256;22068;-80
2022/09/28 16:19:42;;;;;;;16.40;14.80;;;;;;;11.80;67.34;98533.61;110742;1256;21997;-80
2022/09/28 16:22:20;;;;;;;16.60;15.00;;;;;;;11.83;67.41;98535.13;110840;1250;24303;-81
2022/09/28 16:25:00;;;;;;;20.60;15.40;;;;;;;11.88;67.58;98537.56;111029;1250;22339;-77
2022/09/28 16:27:44;;;;;;;22.30;14.90;;;;;;;11.93;67.68;98534.75;110437;1256;23673;-80
2022/09/28 16:30:28;;;;;;;;;;;;;;;11.96;67.62;98535.27;110504;1256;22750;-80
2022/09/28 16:33:28;;;;;;;19.70;15.30;;;;;;;11.86;67.81;98539.45;111020;1256;22020;-78
2022/09/28 16:36:09;;;;;;;20.00;16.00;;;;;;;11.86;67.90;98539.46;110160;1256;22961;-80
2022/09/28 16:38:54;;;;;;;18.00;16.10;;;;;;;11.85;67.68;98535.85;110314;1256;21974;-78
2022/09/28 16:41:35;;;;;;;20.60;17.90;;;;;;;11.83;67.71;98536.49;110754;1256;22985;-80
2022/09/28 16:44:27;;;;;;;22.20;17.80;;;;;;;11.81;67.79;98536.16;109556;1262;23072;-79
2022/09/28 16:47:03;;;;;;;23.20;20.80;;;;;;;11.80;67.77;98543.89;110470;1256;21974;-80
2022/09/28 16:49:39;;;;;;;32.00;28.10;;;;;;;11.78;67.81;98552.20;110691;1256;22732;-79
2022/09/28 16:55:14;;;;;;;24.50;21.90;;;;;;;11.74;67.90;98553.90;110372;1256;21963;-79
2022/09/28 16:55:15;;;;;;;23.10;19.50;;;;;;;11.67;67.87;98551.59;109744;1259;22392;-78
2022/09/28 16:58:08;;;;;;;21.00;17.20;;;;;;;11.62;68.10;98553.70;109769;1259;22428;-80
2022/09/28 17:00:42;;;;;;;21.20;17.50;;;;;;;11.59;68.17;98554.79;109698;1259;21956;-81
2022/09/28 17:03:22;;;;;;;17.90;16.00;;;;;;;11.57;67.96;98554.40;110174;1256;21963;-81
2022/09/28 17:05:58;;;;;;;22.10;16.30;;;;;;;11.49;68.11;98552.87;110369;1256;23003;-80
2022/09/28 17:08:34;;;;;;;25.50;18.70;;;;;;;11.43;68.17;98552.58;110280;1256;21965;-82
2022/09/28 17:11:37;;;;;;;20.30;17.60;;;;;;;11.35;68.25;98556.11;110694;1256;23046;-80
2022/09/28 17:14:35;;;;;;;20.60;16.50;;;;;;;11.27;68.39;98560.08;110963;1251;21965;-81
2022/09/28 17:17:28;;;;;;;18.50;16.10;;;;;;;11.21;68.49;98560.50;110772;1253;23809;-78
2022/09/28 17:20:21;;;;;;;24.30;17.60;;;;;;;11.17;68.60;98561.54;110711;1253;22756;-82
2022/09/28 17:23:38;;;;;;;17.60;15.50;;;;;;;11.08;68.77;98562.96;110352;1256;23565;-81
2022/09/28 17:26:33;;;;;;;21.90;17.40;;;;;;;11.01;68.80;98566.08;110350;1256;23081;-81
2022/09/28 17:29:51;;;;;;;24.90;20.10;;;;;;;10.90;68.92;98570.81;109696;1263;22748;-81
2022/09/28 17:32:56;;;;;;;25.60;19.30;;;;;;;10.85;68.88;98577.02;109360;1264;23598;-81
2022/09/28 17:35:48;;;;;;;25.80;20.00;;;;;;;10.77;69.02;98578.31;109558;1265;22053;-80
2022/09/28 17:39:13;;;;;;;;;;;;;;;;;;;;;
2022/09/28 17:44:12;;;;;;;26.40;20.70;;;;;;;10.56;69.36;98587.52;109235;1270;23597;-83
2022/09/28 17:47:13;;;;;;;35.20;30.90;;;;;;;10.47;69.72;98591.76;109133;1271;22278;-79
2022/09/28 17:49:44;;;;;;;34.80;30.10;;;;;;;10.46;69.81;98593.69;109008;1270;22037;-79
2022/09/28 17:52:16;;;;;;;44.30;33.90;;;;;;;10.48;70.23;98592.93;108336;1276;22226;-80
2022/09/28 17:55:29;;;;;;;37.10;33.00;;;;;;;10.44;70.27;98594.01;108696;1273;22926;-79
2022/09/28 17:58:00;;;;;;;41.20;35.50;;;;;;;10.43;70.28;98597.60;108405;1273;21979;-79
2022/09/28 18:00:29;;;;;;;;;;;;;;;10.41;70.50;98599.78;108708;1268;21968;-78
2022/09/28 18:03:00;;;;;;;38.50;34.30;;;;;;;10.30;70.68;98600.98;109092;1267;23796;-77
2022/09/28 18:05:30;;;;;;;37.40;31.00;;;;;;;10.27;70.58;98602.73;108891;1271;21996;-78
2022/09/28 18:08:04;;;;;;;35.80;32.10;;;;;;;10.25;70.64;98599.59;109170;1268;22538;-79
2022/09/28 18:10:34;;;;;;;33.90;30.50;;;;;;;10.23;70.45;98597.97;109057;1264;21979;-79
2022/09/28 18:13:06;;;;;;;36.10;32.40;;;;;;;10.22;70.61;98602.41;109613;1263;22850;-78
2022/09/28 18:15:35;;;;;;;34.90;31.40;;;;;;;10.20;70.69;98603.55;109789;1259;22420;-79
2022/09/28 18:18:08;;;;;;;35.30;31.80;;;;;;;10.18;70.75;98605.95;110010;1259;23034;-79
2022/09/28 18:20:38;;;;;;;37.50;33.60;;;;;;;10.15;70.75;98610.64;110593;1253;21970;-78
2022/09/28 18:23:07;;;;;;;34.10;30.60;;;;;;;10.13;70.89;98611.49;110352;1256;21953;-78
2022/09/28 18:25:42;;;;;;;36.30;31.10;;;;;;;10.11;70.96;98615.73;110652;1253;25057;-78
2022/09/28 18:28:16;;;;;;;35.70;32.00;;;;;;;10.09;71.07;98614.29;110851;1251;21957;-77
2022/09/28 18:30:45;;;;;;;;;;;;;;;10.08;71.16;98612.80;110856;1251;22915;-78
2022/09/28 18:33:15;;;;;;;57.10;51.70;;;;;;;10.00;71.52;98617.84;110650;1251;23646;-76
2022/09/28 18:35:54;;;;;;;52.70;47.60;;;;;;;10.02;71.69;98614.96;110853;1251;21961;-76
2022/09/28 18:38:26;;;;;;;48.60;44.00;;;;;;;10.04;71.76;98609.97;110461;1256;23680;-76
2022/09/28 18:40:55;;;;;;;48.00;43.10;;;;;;;10.05;71.74;98613.89;110281;1256;21967;-78
2022/09/28 18:43:24;;;;;;;46.60;42.10;;;;;;;10.06;71.72;98612.98;110205;1256;23644;-79
2022/09/28 18:45:54;;;;;;;44.30;39.90;;;;;;;10.06;71.83;98617.33;110571;1256;21965;-80
2022/09/28 18:48:26;;;;;;;37.40;33.80;;;;;;;10.06;71.74;98629.33;109889;1264;21990;-81
2022/09/28 18:50:56;;;;;;;36.70;32.90;;;;;;;10.05;71.76;98631.10;109862;1264;22014;-80
2022/09/28 18:53:25;;;;;;;37.60;33.60;;;;;;;10.05;71.78;98629.37;109362;1267;23847;-79
2022/09/28 18:55:55;;;;;;;36.70;31.80;;;;;;;10.05;71.82;98630.23;108796;1268;24000;-80
2022/09/28 18:58:25;;;;;;;33.50;30.10;;;;;;;10.03;71.78;98633.32;109221;1268;23110;-80
2022/09/28 19:00:56;;;;;;;30.00;26.90;;;;;;;10.01;71.77;98633.30;109414;1267;21977;-80
2022/09/28 19:03:46;;;;;;;31.10;27.80;;;;;;;9.96;71.85;98633.02;109111;1267;22141;-79
2022/09/28 19:06:15;;;;;;;28.20;24.70;;;;;;;9.97;71.84;98636.66;109613;1262;21973;-79
2022/09/28 19:08:52;;;;;;;30.60;26.60;;;;;;;9.95;72.15;98635.69;109716;1262;23912;-85
2022/09/28 19:11:24;;;;;;;29.30;26.10;;;;;;;9.97;72.50;98640.30;109947;1259;21984;-80
2022/09/28 19:13:54;;;;;;;33.10;24.00;;;;;;;10.02;72.70;98639.80;110709;1253;22311;-80
2022/09/28 19:16:32;;;;;;;29.80;26.60;;;;;;;10.07;72.85;98644.85;111013;1253;22023;-80
2022/09/28 19:19:05;;;;;;;28.30;23.90;;;;;;;10.12;73.06;98645.42;111198;1253;21971;-80
2022/09/28 19:21:36;;;;;;;25.20;22.50;;;;;;;10.16;73.01;98646.02;110270;1257;21985;-82
2022/09/28 19:24:06;;;;;;;23.50;19.60;;;;;;;10.20;73.01;98648.77;110557;1257;21983;-82
2022/09/28 19:26:37;;;;;;;23.60;20.00;;;;;;;10.21;72.83;98647.31;110356;1259;22092;-80
2022/09/28 19:29:06;;;;;;;23.10;18.30;;;;;;;10.20;72.77;98645.30;110658;1257;21979;-80
2022/09/28 19:31:36;;;;;;;17.00;14.80;;;;;;;10.19;72.81;98644.62;110517;1259;21975;-80
2022/09/28 19:34:06;;;;;;;18.80;13.60;;;;;;;10.19;72.95;98646.17;110354;1257;22018;-80
2022/09/28 19:36:42;;;;;;;19.10;12.90;;;;;;;10.19;72.95;98646.70;110546;1256;23753;-82
2022/09/28 19:39:34;;;;;;;13.40;11.30;;;;;;;10.20;72.83;98647.36;110357;1251;22332;-79
2022/09/28 19:42:04;;;;;;;13.80;12.30;;;;;;;10.19;72.97;98653.70;110723;1253;22750;-79
2022/09/28 19:44:34;;;;;;;24.20;18.70;;;;;;;10.15;72.74;98657.56;110898;1253;23317;-80
2022/09/28 19:47:12;;;;;;;21.40;15.60;;;;;;;10.08;72.71;98658.52;111077;1251;23672;-81
2022/09/28 19:49:41;;;;;;;17.80;14.90;;;;;;;10.02;72.89;98658.23;110655;1253;23099;-81
2022/09/28 19:52:18;;;;;;;16.20;14.00;;;;;;;10.01;73.06;98660.17;110938;1250;22263;-80
2022/09/28 19:55:00;;;;;;;15.30;12.10;;;;;;;9.98;73.11;98663.11;111128;1252;22422;-80
2022/09/28 19:57:31;;;;;;;16.50;12.30;;;;;;;9.97;73.25;98661.84;110502;1256;21966;-80
2022/09/28 20:00:03;;;;;;;15.90;12.60;;;;;;;9.95;73.39;98661.59;110721;1259;22433;-82
2022/09/28 20:02:36;;;;;;;14.30;12.00;;;;;;;9.97;73.37;98660.75;110510;1256;22938;-81
2022/09/28 20:05:08;;;;;;;13.60;11.80;;;;;;;10.00;73.49;98662.52;109704;1264;21998;-82
2022/09/28 20:07:38;;;;;;;13.00;11.30;;;;;;;10.01;73.43;98662.25;109608;1265;22442;-83
2022/09/28 20:10:10;;;;;;;16.90;13.50;;;;;;;10.02;73.45;98662.23;109867;1264;21987;-82
2022/09/28 20:12:41;;;;;;;14.70;12.80;;;;;;;10.04;73.50;98663.83;109590;1263;23742;-81
2022/09/28 20:15:15;;;;;;;19.80;13.50;;;;;;;10.04;73.27;98667.52;109893;1259;23799;-80
2022/09/28 20:17:44;;;;;;;16.30;13.20;;;;;;;10.03;73.21;98670.71;110578;1259;21994;-82
2022/09/28 20:20:15;;;;;;;16.40;12.40;;;;;;;10.03;73.24;98672.61;110260;1259;23502;-79
2022/09/28 20:22:44;;;;;;;15.10;12.80;;;;;;;10.01;73.19;98677.38;109911;1254;21959;-80
2022/09/28 20:25:14;;;;;;;14.70;12.50;;;;;;;10.00;73.11;98680.91;110826;1256;23038;-79
2022/09/28 20:27:49;;;;;;;16.60;13.40;;;;;;;10.00;73.07;98687.21;110657;1256;22481;-81
2022/09/28 20:30:24;;;;;;;29.70;26.60;;;;;;;9.97;73.08;98688.96;110621;1254;21962;-78
2022/09/28 20:32:58;;;;;;;16.00;13.40;;;;;;;9.94;72.89;98691.03;110934;1256;21985;-80
2022/09/28 20:35:28;;;;;;;14.90;12.10;;;;;;;9.91;72.79;98689.61;109944;1256;21962;-80
2022/09/28 20:38:07;;;;;;;12.90;11.20;;;;;;;9.85;72.71;98691.55;110214;1256;22020;-80
2022/09/28 20:40:39;;;;;;;13.10;11.30;;;;;;;9.80;72.76;98691.23;110716;1256;24005;-80
2022/09/28 20:43:10;;;;;;;12.00;10.00;;;;;;;9.77;72.84;98697.09;110658;1256;21975;-80
2022/09/28 20:45:40;;;;;;;13.80;9.90;;;;;;;9.75;73.02;98701.02;110349;1259;22099;-81
2022/09/28 20:48:14;;;;;;;11.00;9.30;;;;;;;9.74;72.91;98703.51;110129;1256;22019;-80
2022/09/28 20:50:46;;;;;;;10.50;8.70;;;;;;;9.72;72.96;98708.70;110635;1256;21974;-87
2022/09/28 20:53:22;;;;;;;11.90;9.40;;;;;;;9.70;72.93;98711.60;110551;1253;22912;-80
2022/09/28 20:56:36;;;;;;;10.70;8.10;;;;;;;9.67;72.88;98713.19;111017;1254;21964;-81
2022/09/28 20:59:11;;;;;;;11.90;10.00;;;;;;;9.63;72.90;98718.96;109857;1262;22389;-81
2022/09/28 21:02:04;;;;;;;11.90;9.70;;;;;;;9.58;72.80;98723.96;109377;1268;21977;-82
2022/09/28 21:04:53;;;;;;;12.10;9.20;;;;;;;9.55;72.84;98727.41;109285;1267;21976;-83
2022/09/28 21:08:00;;;;;;;11.10;9.30;;;;;;;9.54;72.94;98725.77;109415;1268;21978;-84
2022/09/28 21:10:33;;;;;;;11.80;9.70;;;;;;;9.54;72.92;98731.48;109186;1269;22786;-81
2022/09/28 21:13:30;;;;;;;14.40;9.30;;;;;;;9.54;72.85;98732.15;109244;1270;22223;-81
2022/09/28 21:16:03;;;;;;;10.40;8.40;;;;;;;9.51;72.59;98731.98;109238;1268;23070;-83
2022/09/28 21:18:41;;;;;;;12.00;8.10;;;;;;;9.49;72.62;98735.26;109105;1268;21977;-83
2022/09/28 21:21:33;;;;;;;10.50;7.70;;;;;;;9.46;72.51;98738.23;109750;1261;21968;-83
2022/09/28 21:24:42;;;;;;;10.50;6.60;;;;;;;9.38;72.45;98745.09;109948;1262;23970;-82
2022/09/28 21:27:36;;;;;;;8.60;6.50;;;;;;;9.33;72.33;98747.30;109059;1270;22127;-82
2022/09/28 21:30:11;;;;;;;10.70;7.50;;;;;;;9.30;72.28;98751.61;108986;1270;22003;-81
2022/09/28 21:32:42;;;;;;;9.10;7.10;;;;;;;9.27;72.12;98752.85;109038;1270;23084;-82
2022/09/28 21:35:30;;;;;;;7.80;7.00;;;;;;;9.25;72.05;98753.52;109119;1267;22002;-81
2022/09/28 21:38:41;;;;;;;8.10;6.40;;;;;;;9.21;72.10;98765.20;109620;1265;21981;-81
2022/09/28 21:41:32;;;;;;;8.10;7.30;;;;;;;9.18;71.88;98771.77;109582;1264;22078;-82
2022/09/28 21:44:25;;;;;;;12.10;8.40;;;;;;;9.12;71.68;98770.56;109603;1264;22056;-82
2022/09/28 21:47:03;;;;;;;7.60;6.60;;;;;;;9.06;71.83;98773.98;109462;1263;23162;-81
2022/09/28 21:49:40;;;;;;;7.90;6.60;;;;;;;9.06;71.88;98777.52;109537;1264;22013;-81
2022/09/28 21:52:20;;;;;;;8.90;7.80;;;;;;;9.03;71.82;98779.22;110069;1258;23007;-80
2022/09/28 21:54:49;;;;;;;8.50;7.60;;;;;;;9.02;71.79;98779.08;110300;1257;22117;-81
2022/09/28 21:57:19;;;;;;;8.70;7.90;;;;;;;8.99;71.67;98784.11;110205;1259;22430;-80
2022/09/28 21:59:54;;;;;;;;;;;;;;;8.95;71.66;98784.70;110677;1254;22040;-82
2022/09/28 22:02:25;;;;;;;16.20;14.60;;;;;;;8.84;72.07;98784.80;110794;1253;23078;-79
2022/09/28 22:05:05;;;;;;;12.60;8.70;;;;;;;8.83;72.11;98785.39;110801;1252;23707;-80
2022/09/28 22:07:43;;;;;;;10.10;6.90;;;;;;;8.83;71.95;98788.66;110739;1254;21966;-81
2022/09/28 22:10:18;;;;;;;6.90;6.20;;;;;;;8.80;71.95;98789.50;110999;1251;22053;-80
2022/09/28 22:12:57;;;;;;;9.60;6.40;;;;;;;8.78;71.94;98791.70;110850;1251;23058;-80
2022/09/28 22:15:39;;;;;;;7.90;7.10;;;;;;;8.78;72.00;98793.80;110864;1253;23663;-81
2022/09/28 22:18:13;;;;;;;9.50;7.40;;;;;;;8.75;72.05;98796.18;110875;1248;21995;-82
2022/09/28 22:21:07;;;;;;;9.50;7.00;;;;;;;8.72;71.96;98795.70;111015;1251;22033;-81
2022/09/28 22:23:48;;;;;;;9.10;7.40;;;;;;;8.68;72.18;98795.55;110952;1251;23094;-81
2022/09/28 22:26:38;;;;;;;8.90;7.30;;;;;;;8.68;72.14;98795.91;110813;1253;23039;-80
2022/09/28 22:29:14;;;;;;;10.80;7.00;;;;;;;8.67;71.99;98798.21;110737;1254;21967;-80
2022/09/28 22:31:46;;;;;;;8.60;7.40;;;;;;;8.66;72.02;98796.17;110734;1253;21957;-80
2022/09/28 22:34:20;;;;;;;;;;;;;;;8.65;72.08;98801.41;110940;1250;22159;-82
2022/09/28 22:37:06;;;;;;;7.20;6.50;;;;;;;8.55;72.50;98803.84;110890;1250;22855;-81
2022/09/28 22:39:40;;;;;;;9.30;5.90;;;;;;;8.60;72.50;98810.74;110811;1251;22079;-83
2022/09/28 22:42:22;;;;;;;7.10;6.20;;;;;;;8.63;72.52;98814.03;111026;1253;22332;-81
2022/09/28 22:45:06;;;;;;;7.10;6.10;;;;;;;8.67;72.47;98816.40;111100;1252;22062;-80
2022/09/28 22:47:37;;;;;;;6.70;6.10;;;;;;;8.72;72.53;98817.73;110479;1256;23033;-81
2022/09/28 22:50:14;;;;;;;6.20;5.60;;;;;;;8.76;72.49;98821.47;110352;1258;21983;-80
2022/09/28 22:52:48;;;;;;;6.70;6.00;;;;;;;8.79;72.42;98829.10;110565;1256;22031;-80
2022/09/28 22:55:28;;;;;;;6.30;5.70;;;;;;;8.83;72.24;98830.98;110538;1256;21969;-80
2022/09/28 22:58:00;;;;;;;8.20;5.60;;;;;;;8.81;72.27;98828.98;109560;1264;21975;-79
2022/09/28 23:00:33;;;;;;;6.90;5.70;;;;;;;8.83;72.13;98831.84;109243;1269;23621;-81
2022/09/28 23:03:20;;;;;;;6.20;5.70;;;;;;;8.81;72.07;98835.95;108880;1273;22126;-80
2022/09/28 23:06:02;;;;;;;8.20;5.70;;;;;;;8.80;71.96;98837.89;108904;1273;21974;-81
2022/09/28 23:08:39;;;;;;;7.80;6.70;;;;;;;8.79;71.99;98846.13;109109;1270;23804;-81
2022/09/28 23:11:17;;;;;;;6.60;5.90;;;;;;;8.79;72.09;98844.40;109050;1273;23072;-81
2022/09/28 23:13:54;;;;;;;6.80;5.80;;;;;;;8.79;72.00;98846.45;109132;1270;24431;-82
2022/09/28 23:16:25;;;;;;;7.00;6.20;;;;;;;8.78;72.07;98848.90;109070;1271;22112;-81
2022/09/28 23:18:59;;;;;;;6.50;5.90;;;;;;;8.79;71.92;98850.27;108929;1271;22283;-83
2022/09/28 23:21:36;;;;;;;8.00;5.90;;;;;;;8.79;72.07;98852.33;109123;1267;22052;-80
2022/09/28 23:24:15;;;;;;;6.70;5.70;;;;;;;8.82;72.22;98856.67;110126;1262;22030;-81
2022/09/28 23:26:47;;;;;;;7.60;5.70;;;;;;;8.85;72.28;98857.91;109954;1263;21925;-82
2022/09/28 23:29:21;;;;;;;6.20;5.30;;;;;;;8.83;72.13;98855.23;109191;1267;22002;-84
2022/09/28 23:32:01;;;;;;;6.90;6.20;;;;;;;8.85;71.96;98858.83;109650;1265;23719;-82
2022/09/28 23:34:39;;;;;;;6.70;6.00;;;;;;;8.85;72.03;98858.10;109668;1260;23398;-82
2022/09/28 23:37:14;;;;;;;6.10;5.60;;;;;;;8.87;72.12;98858.84;109944;1257;22003;-82
2022/09/28 23:39:52;;;;;;;6.20;5.70;;;;;;;8.88;72.01;98859.33;110166;1259;23636;-82
2022/09/28 23:42:21;;;;;;;6.40;5.80;;;;;;;8.89;71.97;98861.02;110336;1260;21965;-82
2022/09/28 23:44:58;;;;;;;6.40;5.60;;;;;;;8.88;71.76;98863.64;110526;1259;21976;-81
2022/09/28 23:47:31;;;;;;;9.50;6.00;;;;;;;8.90;71.92;98863.71;110255;1251;23571;-81
2022/09/28 23:50:22;;;;;;;6.30;5.60;;;;;;;8.90;71.77;98862.15;111090;1253;21975;-82
2022/09/28 23:53:06;;;;;;;6.70;6.00;;;;;;;8.89;71.75;98864.30;111014;1253;22076;-81
2022/09/28 23:55:42;;;;;;;8.20;6.70;;;;;;;8.90;71.83;98864.59;110861;1253;23667;-82
2022/09/28 23:58:26;;;;;;;6.60;6.00;;;;;;;8.90;71.78;98864.39;110861;1253;21961;-81
